sensor_id;sensor_type;location;lat;lon;timestamp;P1;durP1;ratioP1;P2;durP2;ratioP2
83663;SDS011;73634;47.068;15.426;2024-02-16T00:04:15;6.45;;;2.60;;
83663;SDS011;73634;47.068;15.426;2024-02-16T00:06:40;8.00;;;2.65;;
83663;SDS011;73634;47.068;15.426;2024-02-16T00:09:05;5.70;;;2.60;;
83663;SDS011;73634;47.068;15.426;2024-02-16T00:11:31;6.90;;;2.60;;
83663;SDS011;73634;47.068;15.426;2024-02-16T00:13:56;7.63;;;2.20;;
83663;SDS011;73634;47.068;15.426;2024-02-16T00:16:21;5.90;;;2.25;;
83663;SDS011;73634;47.068;15.426;2024-02-16T00:18:47;6.53;;;2.78;;
83663;SDS011;73634;47.068;15.426;2024-02-16T00:21:12;7.18;;;2.53;;
83663;SDS011;73634;47.068;15.426;2024-02-16T00:23:38;10.00;;;2.40;;
83663;SDS011;73634;47.068;15.426;2024-02-16T00:26:03;10.48;;;2.67;;
83663;SDS011;73634;47.068;15.426;2024-02-16T00:30:25;6.28;;;2.33;;
83663;SDS011;73634;47.068;15.426;2024-02-16T00:32:52;5.53;;;1.80;;
83663;SDS011;73634;47.068;15.426;2024-02-16T00:35:17;5.07;;;2.17;;
83663;SDS011;73634;47.068;15.426;2024-02-16T00:37:44;6.10;;;2.20;;
83663;SDS011;73634;47.068;15.426;2024-02-16T00:40:10;5.63;;;2.28;;
83663;SDS011;73634;47.068;15.426;2024-02-16T00:42:36;6.68;;;2.40;;
83663;SDS011;73634;47.068;15.426;2024-02-16T00:45:02;4.78;;;1.90;;
83663;SDS011;73634;47.068;15.426;2024-02-16T00:47:28;6.65;;;1.70;;
83663;SDS011;73634;47.068;15.426;2024-02-16T00:49:54;5.32;;;2.25;;
83663;SDS011;73634;47.068;15.426;2024-02-16T00:55:21;6.75;;;2.33;;
83663;SDS011;73634;47.068;15.426;2024-02-16T00:57:47;7.47;;;2.47;;
83663;SDS011;73634;47.068;15.426;2024-02-16T01:00:12;5.40;;;2.00;;
83663;SDS011;73634;47.068;15.426;2024-02-16T01:02:40;5.68;;;2.15;;
83663;SDS011;73634;47.068;15.426;2024-02-16T01:05:05;5.63;;;2.22;;
83663;SDS011;73634;47.068;15.426;2024-02-16T01:07:31;5.70;;;2.10;;
83663;SDS011;73634;47.068;15.426;2024-02-16T01:09:57;4.90;;;2.10;;
83663;SDS011;73634;47.068;15.426;2024-02-16T01:12:22;5.30;;;2.17;;
83663;SDS011;73634;47.068;15.426;2024-02-16T01:14:48;6.32;;;2.10;;
83663;SDS011;73634;47.068;15.426;2024-02-16T01:19:48;6.95;;;2.13;;
83663;SDS011;73634;47.068;15.426;2024-02-16T01:22:13;5.57;;;1.75;;
83663;SDS011;73634;47.068;15.426;2024-02-16T01:24:39;4.85;;;2.03;;
83663;SDS011;73634;47.068;15.426;2024-02-16T01:27:04;5.43;;;2.22;;
83663;SDS011;73634;47.068;15.426;2024-02-16T01:29:29;5.88;;;1.90;;
83663;SDS011;73634;47.068;15.426;2024-02-16T01:31:55;4.15;;;1.70;;
83663;SDS011;73634;47.068;15.426;2024-02-16T01:34:20;6.60;;;2.17;;
83663;SDS011;73634;47.068;15.426;2024-02-16T01:36:46;6.35;;;2.15;;
83663;SDS011;73634;47.068;15.426;2024-02-16T01:39:11;5.22;;;1.70;;
83663;SDS011;73634;47.068;15.426;2024-02-16T01:44:14;7.03;;;2.40;;
83663;SDS011;73634;47.068;15.426;2024-02-16T01:46:41;5.70;;;2.20;;
83663;SDS011;73634;47.068;15.426;2024-02-16T01:49:07;4.97;;;2.10;;
83663;SDS011;73634;47.068;15.426;2024-02-16T01:51:33;6.80;;;2.20;;
83663;SDS011;73634;47.068;15.426;2024-02-16T01:54:00;6.05;;;1.90;;
83663;SDS011;73634;47.068;15.426;2024-02-16T01:56:26;9.60;;;2.67;;
83663;SDS011;73634;47.068;15.426;2024-02-16T01:58:52;6.47;;;2.42;;
83663;SDS011;73634;47.068;15.426;2024-02-16T02:01:17;6.07;;;2.35;;
83663;SDS011;73634;47.068;15.426;2024-02-16T02:03:43;5.43;;;2.55;;
83663;SDS011;73634;47.068;15.426;2024-02-16T02:07:55;4.82;;;1.80;;
83663;SDS011;73634;47.068;15.426;2024-02-16T02:10:20;7.25;;;2.70;;
83663;SDS011;73634;47.068;15.426;2024-02-16T02:12:47;6.75;;;2.03;;
83663;SDS011;73634;47.068;15.426;2024-02-16T02:15:12;6.00;;;2.17;;
83663;SDS011;73634;47.068;15.426;2024-02-16T02:17:38;4.97;;;1.95;;
83663;SDS011;73634;47.068;15.426;2024-02-16T02:20:04;5.13;;;1.77;;
83663;SDS011;73634;47.068;15.426;2024-02-16T02:22:33;6.18;;;1.98;;
83663;SDS011;73634;47.068;15.426;2024-02-16T02:24:58;6.10;;;2.40;;
83663;SDS011;73634;47.068;15.426;2024-02-16T02:27:23;4.90;;;2.20;;
83663;SDS011;73634;47.068;15.426;2024-02-16T02:32:26;6.35;;;2.00;;
83663;SDS011;73634;47.068;15.426;2024-02-16T02:34:51;5.55;;;1.92;;
83663;SDS011;73634;47.068;15.426;2024-02-16T02:37:17;5.35;;;2.00;;
83663;SDS011;73634;47.068;15.426;2024-02-16T02:39:42;5.80;;;1.80;;
83663;SDS011;73634;47.068;15.426;2024-02-16T02:42:09;6.82;;;1.95;;
83663;SDS011;73634;47.068;15.426;2024-02-16T02:44:35;6.32;;;1.70;;
83663;SDS011;73634;47.068;15.426;2024-02-16T02:47:00;6.45;;;1.83;;
83663;SDS011;73634;47.068;15.426;2024-02-16T02:49:26;3.92;;;1.42;;
83663;SDS011;73634;47.068;15.426;2024-02-16T02:51:51;6.13;;;1.70;;
83663;SDS011;73634;47.068;15.426;2024-02-16T02:56:36;5.13;;;2.00;;
83663;SDS011;73634;47.068;15.426;2024-02-16T02:59:02;4.10;;;1.60;;
83663;SDS011;73634;47.068;15.426;2024-02-16T03:01:27;7.75;;;2.33;;
83663;SDS011;73634;47.068;15.426;2024-02-16T03:03:53;6.47;;;2.60;;
83663;SDS011;73634;47.068;15.426;2024-02-16T03:06:19;7.72;;;1.98;;
83663;SDS011;73634;47.068;15.426;2024-02-16T03:08:45;4.78;;;1.48;;
83663;SDS011;73634;47.068;15.426;2024-02-16T03:11:10;4.65;;;2.00;;
83663;SDS011;73634;47.068;15.426;2024-02-16T03:13:36;7.05;;;2.30;;
83663;SDS011;73634;47.068;15.426;2024-02-16T03:16:01;6.97;;;2.55;;
83663;SDS011;73634;47.068;15.426;2024-02-16T03:21:00;4.80;;;2.08;;
83663;SDS011;73634;47.068;15.426;2024-02-16T03:23:25;5.20;;;2.13;;
83663;SDS011;73634;47.068;15.426;2024-02-16T03:25:51;5.53;;;1.92;;
83663;SDS011;73634;47.068;15.426;2024-02-16T03:28:17;5.05;;;2.03;;
83663;SDS011;73634;47.068;15.426;2024-02-16T03:30:43;4.90;;;1.77;;
83663;SDS011;73634;47.068;15.426;2024-02-16T03:33:09;5.13;;;2.05;;
83663;SDS011;73634;47.068;15.426;2024-02-16T03:35:35;4.78;;;1.88;;
83663;SDS011;73634;47.068;15.426;2024-02-16T03:38:04;4.03;;;1.60;;
83663;SDS011;73634;47.068;15.426;2024-02-16T03:41:40;5.90;;;2.03;;
83663;SDS011;73634;47.068;15.426;2024-02-16T03:44:06;7.22;;;1.88;;
83663;SDS011;73634;47.068;15.426;2024-02-16T03:46:31;6.25;;;1.83;;
83663;SDS011;73634;47.068;15.426;2024-02-16T03:48:57;6.22;;;2.05;;
83663;SDS011;73634;47.068;15.426;2024-02-16T03:51:22;7.20;;;1.88;;
83663;SDS011;73634;47.068;15.426;2024-02-16T03:53:48;6.78;;;2.05;;
83663;SDS011;73634;47.068;15.426;2024-02-16T03:56:20;5.10;;;2.03;;
83663;SDS011;73634;47.068;15.426;2024-02-16T03:58:46;5.55;;;2.10;;
83663;SDS011;73634;47.068;15.426;2024-02-16T04:03:22;5.30;;;1.75;;
83663;SDS011;73634;47.068;15.426;2024-02-16T04:05:47;6.32;;;2.28;;
83663;SDS011;73634;47.068;15.426;2024-02-16T04:08:13;6.32;;;1.95;;
83663;SDS011;73634;47.068;15.426;2024-02-16T04:10:38;7.68;;;2.22;;
83663;SDS011;73634;47.068;15.426;2024-02-16T04:13:03;8.35;;;2.10;;
83663;SDS011;73634;47.068;15.426;2024-02-16T04:15:29;6.10;;;2.30;;
83663;SDS011;73634;47.068;15.426;2024-02-16T04:17:55;5.63;;;1.95;;
83663;SDS011;73634;47.068;15.426;2024-02-16T04:20:20;6.45;;;2.47;;
83663;SDS011;73634;47.068;15.426;2024-02-16T04:22:46;4.60;;;1.95;;
83663;SDS011;73634;47.068;15.426;2024-02-16T04:26:47;5.72;;;2.00;;
83663;SDS011;73634;47.068;15.426;2024-02-16T04:29:12;9.90;;;2.08;;
83663;SDS011;73634;47.068;15.426;2024-02-16T04:31:39;5.18;;;2.13;;
83663;SDS011;73634;47.068;15.426;2024-02-16T04:34:05;7.75;;;2.65;;
83663;SDS011;73634;47.068;15.426;2024-02-16T04:36:30;6.68;;;2.28;;
83663;SDS011;73634;47.068;15.426;2024-02-16T04:38:56;6.47;;;2.28;;
83663;SDS011;73634;47.068;15.426;2024-02-16T04:41:21;6.07;;;2.05;;
83663;SDS011;73634;47.068;15.426;2024-02-16T04:43:47;5.97;;;1.95;;
83663;SDS011;73634;47.068;15.426;2024-02-16T04:46:15;4.72;;;2.10;;
83663;SDS011;73634;47.068;15.426;2024-02-16T04:48:41;5.25;;;2.03;;
83663;SDS011;73634;47.068;15.426;2024-02-16T04:52:14;6.70;;;2.17;;
83663;SDS011;73634;47.068;15.426;2024-02-16T04:54:39;5.32;;;2.65;;
83663;SDS011;73634;47.068;15.426;2024-02-16T04:57:05;7.13;;;2.20;;
83663;SDS011;73634;47.068;15.426;2024-02-16T04:59:31;5.63;;;2.22;;
83663;SDS011;73634;47.068;15.426;2024-02-16T05:01:56;7.00;;;2.30;;
83663;SDS011;73634;47.068;15.426;2024-02-16T05:04:22;9.10;;;2.47;;
83663;SDS011;73634;47.068;15.426;2024-02-16T05:06:47;6.78;;;2.50;;
83663;SDS011;73634;47.068;15.426;2024-02-16T05:09:13;5.43;;;2.25;;
83663;SDS011;73634;47.068;15.426;2024-02-16T05:11:41;5.05;;;1.88;;
83663;SDS011;73634;47.068;15.426;2024-02-16T05:14:07;8.80;;;2.92;;
83663;SDS011;73634;47.068;15.426;2024-02-16T05:19:09;6.47;;;2.30;;
83663;SDS011;73634;47.068;15.426;2024-02-16T05:21:34;6.30;;;2.00;;
83663;SDS011;73634;47.068;15.426;2024-02-16T05:24:00;6.10;;;2.65;;
83663;SDS011;73634;47.068;15.426;2024-02-16T05:26:25;6.25;;;2.10;;
83663;SDS011;73634;47.068;15.426;2024-02-16T05:28:51;5.65;;;2.60;;
83663;SDS011;73634;47.068;15.426;2024-02-16T05:31:16;5.93;;;2.45;;
83663;SDS011;73634;47.068;15.426;2024-02-16T05:33:43;8.13;;;2.97;;
83663;SDS011;73634;47.068;15.426;2024-02-16T05:36:09;5.85;;;2.63;;
83663;SDS011;73634;47.068;15.426;2024-02-16T05:38:35;6.13;;;2.67;;
83663;SDS011;73634;47.068;15.426;2024-02-16T05:43:37;8.32;;;2.53;;
83663;SDS011;73634;47.068;15.426;2024-02-16T05:46:03;6.50;;;2.38;;
83663;SDS011;73634;47.068;15.426;2024-02-16T05:48:33;6.13;;;2.50;;
83663;SDS011;73634;47.068;15.426;2024-02-16T05:51:02;5.85;;;2.30;;
83663;SDS011;73634;47.068;15.426;2024-02-16T05:53:28;6.40;;;2.60;;
83663;SDS011;73634;47.068;15.426;2024-02-16T05:55:53;5.03;;;1.83;;
83663;SDS011;73634;47.068;15.426;2024-02-16T05:58:20;7.47;;;2.10;;
83663;SDS011;73634;47.068;15.426;2024-02-16T06:00:45;5.47;;;2.20;;
83663;SDS011;73634;47.068;15.426;2024-02-16T06:03:12;6.72;;;2.40;;
83663;SDS011;73634;47.068;15.426;2024-02-16T06:08:34;5.88;;;2.05;;
83663;SDS011;73634;47.068;15.426;2024-02-16T06:10:59;6.68;;;2.22;;
83663;SDS011;73634;47.068;15.426;2024-02-16T06:13:27;6.50;;;2.83;;
83663;SDS011;73634;47.068;15.426;2024-02-16T06:15:52;9.68;;;2.70;;
83663;SDS011;73634;47.068;15.426;2024-02-16T06:18:18;7.05;;;2.35;;
83663;SDS011;73634;47.068;15.426;2024-02-16T06:20:44;7.15;;;2.25;;
83663;SDS011;73634;47.068;15.426;2024-02-16T06:23:10;7.20;;;2.60;;
83663;SDS011;73634;47.068;15.426;2024-02-16T06:25:35;8.25;;;2.83;;
83663;SDS011;73634;47.068;15.426;2024-02-16T06:28:01;7.75;;;3.05;;
83663;SDS011;73634;47.068;15.426;2024-02-16T06:31:59;4.72;;;2.08;;
83663;SDS011;73634;47.068;15.426;2024-02-16T06:34:27;7.80;;;2.92;;
83663;SDS011;73634;47.068;15.426;2024-02-16T06:36:52;7.47;;;2.97;;
83663;SDS011;73634;47.068;15.426;2024-02-16T06:39:17;7.22;;;2.83;;
83663;SDS011;73634;47.068;15.426;2024-02-16T06:41:43;5.68;;;2.33;;
83663;SDS011;73634;47.068;15.426;2024-02-16T06:44:10;13.43;;;8.93;;
83663;SDS011;73634;47.068;15.426;2024-02-16T06:46:36;9.45;;;3.53;;
83663;SDS011;73634;47.068;15.426;2024-02-16T06:49:01;8.30;;;2.75;;
83663;SDS011;73634;47.068;15.426;2024-02-16T06:51:27;8.45;;;3.17;;
83663;SDS011;73634;47.068;15.426;2024-02-16T06:53:53;8.70;;;2.95;;
83663;SDS011;73634;47.068;15.426;2024-02-16T06:58:25;6.93;;;2.75;;
83663;SDS011;73634;47.068;15.426;2024-02-16T07:00:51;10.05;;;3.28;;
83663;SDS011;73634;47.068;15.426;2024-02-16T07:03:16;8.73;;;3.38;;
83663;SDS011;73634;47.068;15.426;2024-02-16T07:05:43;13.23;;;3.47;;
83663;SDS011;73634;47.068;15.426;2024-02-16T07:08:08;8.07;;;3.10;;
83663;SDS011;73634;47.068;15.426;2024-02-16T07:10:34;8.13;;;3.13;;
83663;SDS011;73634;47.068;15.426;2024-02-16T07:12:59;8.18;;;3.78;;
83663;SDS011;73634;47.068;15.426;2024-02-16T07:15:25;8.70;;;3.53;;
83663;SDS011;73634;47.068;15.426;2024-02-16T07:17:52;9.90;;;3.38;;
83663;SDS011;73634;47.068;15.426;2024-02-16T07:22:52;9.77;;;3.05;;
83663;SDS011;73634;47.068;15.426;2024-02-16T07:25:17;9.52;;;4.00;;
83663;SDS011;73634;47.068;15.426;2024-02-16T07:27:43;7.55;;;3.58;;
83663;SDS011;73634;47.068;15.426;2024-02-16T07:30:08;8.57;;;3.70;;
83663;SDS011;73634;47.068;15.426;2024-02-16T07:32:36;11.18;;;3.97;;
83663;SDS011;73634;47.068;15.426;2024-02-16T07:35:01;7.40;;;4.15;;
83663;SDS011;73634;47.068;15.426;2024-02-16T07:37:28;8.82;;;4.47;;
83663;SDS011;73634;47.068;15.426;2024-02-16T07:39:53;9.80;;;4.25;;
83663;SDS011;73634;47.068;15.426;2024-02-16T07:42:19;6.63;;;3.33;;
83663;SDS011;73634;47.068;15.426;2024-02-16T07:48:03;7.18;;;3.70;;
83663;SDS011;73634;47.068;15.426;2024-02-16T07:50:30;7.82;;;4.85;;
83663;SDS011;73634;47.068;15.426;2024-02-16T07:52:56;8.88;;;4.07;;
83663;SDS011;73634;47.068;15.426;2024-02-16T07:55:21;9.70;;;4.28;;
83663;SDS011;73634;47.068;15.426;2024-02-16T07:57:49;12.57;;;4.53;;
83663;SDS011;73634;47.068;15.426;2024-02-16T08:00:15;10.70;;;5.07;;
83663;SDS011;73634;47.068;15.426;2024-02-16T08:02:43;9.45;;;4.18;;
83663;SDS011;73634;47.068;15.426;2024-02-16T08:05:12;8.15;;;4.97;;
83663;SDS011;73634;47.068;15.426;2024-02-16T08:07:38;7.88;;;3.83;;
83663;SDS011;73634;47.068;15.426;2024-02-16T08:10:04;7.18;;;4.00;;
83663;SDS011;73634;47.068;15.426;2024-02-16T08:14:43;8.57;;;4.30;;
83663;SDS011;73634;47.068;15.426;2024-02-16T08:17:10;7.40;;;4.43;;
83663;SDS011;73634;47.068;15.426;2024-02-16T08:19:36;7.45;;;4.05;;
83663;SDS011;73634;47.068;15.426;2024-02-16T08:22:02;7.95;;;4.38;;
83663;SDS011;73634;47.068;15.426;2024-02-16T08:24:33;8.32;;;3.95;;
83663;SDS011;73634;47.068;15.426;2024-02-16T08:26:59;8.55;;;4.45;;
83663;SDS011;73634;47.068;15.426;2024-02-16T08:29:24;10.15;;;7.90;;
83663;SDS011;73634;47.068;15.426;2024-02-16T08:31:50;9.85;;;6.00;;
83663;SDS011;73634;47.068;15.426;2024-02-16T08:34:16;7.10;;;4.82;;
83663;SDS011;73634;47.068;15.426;2024-02-16T08:36:48;8.68;;;4.47;;
83663;SDS011;73634;47.068;15.426;2024-02-16T08:42:24;8.52;;;4.68;;
83663;SDS011;73634;47.068;15.426;2024-02-16T08:44:50;9.48;;;4.45;;
83663;SDS011;73634;47.068;15.426;2024-02-16T08:47:15;10.65;;;5.10;;
83663;SDS011;73634;47.068;15.426;2024-02-16T08:49:41;8.85;;;5.38;;
83663;SDS011;73634;47.068;15.426;2024-02-16T08:52:07;8.88;;;5.35;;
83663;SDS011;73634;47.068;15.426;2024-02-16T08:54:32;8.93;;;4.32;;
83663;SDS011;73634;47.068;15.426;2024-02-16T08:56:58;7.75;;;5.55;;
83663;SDS011;73634;47.068;15.426;2024-02-16T08:59:23;11.88;;;8.13;;
83663;SDS011;73634;47.068;15.426;2024-02-16T09:01:49;9.45;;;6.90;;
83663;SDS011;73634;47.068;15.426;2024-02-16T09:04:14;8.90;;;6.88;;
83663;SDS011;73634;47.068;15.426;2024-02-16T09:08:06;8.45;;;4.85;;
83663;SDS011;73634;47.068;15.426;2024-02-16T09:10:31;9.82;;;6.30;;
83663;SDS011;73634;47.068;15.426;2024-02-16T09:12:57;8.05;;;5.38;;
83663;SDS011;73634;47.068;15.426;2024-02-16T09:15:22;9.18;;;5.45;;
83663;SDS011;73634;47.068;15.426;2024-02-16T09:17:47;8.13;;;6.22;;
83663;SDS011;73634;47.068;15.426;2024-02-16T09:20:13;10.52;;;8.50;;
83663;SDS011;73634;47.068;15.426;2024-02-16T09:22:40;12.25;;;7.78;;
83663;SDS011;73634;47.068;15.426;2024-02-16T09:25:05;10.70;;;8.20;;
83663;SDS011;73634;47.068;15.426;2024-02-16T09:27:31;9.52;;;6.53;;
83663;SDS011;73634;47.068;15.426;2024-02-16T09:29:57;13.30;;;8.88;;
83663;SDS011;73634;47.068;15.426;2024-02-16T09:34:32;9.63;;;7.20;;
83663;SDS011;73634;47.068;15.426;2024-02-16T09:36:57;10.88;;;7.50;;
83663;SDS011;73634;47.068;15.426;2024-02-16T09:39:23;15.10;;;8.70;;
83663;SDS011;73634;47.068;15.426;2024-02-16T09:41:49;10.38;;;7.72;;
83663;SDS011;73634;47.068;15.426;2024-02-16T09:44:17;12.43;;;7.57;;
83663;SDS011;73634;47.068;15.426;2024-02-16T09:46:42;10.88;;;8.63;;
83663;SDS011;73634;47.068;15.426;2024-02-16T09:49:08;15.93;;;9.45;;
83663;SDS011;73634;47.068;15.426;2024-02-16T09:51:36;12.48;;;8.88;;
83663;SDS011;73634;47.068;15.426;2024-02-16T09:54:02;11.00;;;7.70;;
83663;SDS011;73634;47.068;15.426;2024-02-16T09:56:28;11.50;;;8.32;;
83663;SDS011;73634;47.068;15.426;2024-02-16T10:01:29;12.95;;;8.20;;
83663;SDS011;73634;47.068;15.426;2024-02-16T10:03:59;11.95;;;7.50;;
83663;SDS011;73634;47.068;15.426;2024-02-16T10:06:31;10.82;;;8.02;;
83663;SDS011;73634;47.068;15.426;2024-02-16T10:08:56;11.43;;;8.05;;
83663;SDS011;73634;47.068;15.426;2024-02-16T10:13:56;10.57;;;8.38;;
83663;SDS011;73634;47.068;15.426;2024-02-16T10:16:22;11.48;;;8.85;;
83663;SDS011;73634;47.068;15.426;2024-02-16T10:18:48;12.07;;;8.55;;
83663;SDS011;73634;47.068;15.426;2024-02-16T10:21:13;13.15;;;9.40;;
83663;SDS011;73634;47.068;15.426;2024-02-16T10:25:24;15.13;;;10.27;;
83663;SDS011;73634;47.068;15.426;2024-02-16T10:27:50;13.98;;;8.88;;
83663;SDS011;73634;47.068;15.426;2024-02-16T10:30:19;12.10;;;9.10;;
83663;SDS011;73634;47.068;15.426;2024-02-16T10:32:47;11.60;;;9.02;;
83663;SDS011;73634;47.068;15.426;2024-02-16T10:35:12;14.48;;;9.15;;
83663;SDS011;73634;47.068;15.426;2024-02-16T10:37:41;12.07;;;8.23;;
83663;SDS011;73634;47.068;15.426;2024-02-16T10:40:08;12.95;;;8.60;;
83663;SDS011;73634;47.068;15.426;2024-02-16T10:42:38;16.50;;;9.32;;
83663;SDS011;73634;47.068;15.426;2024-02-16T10:45:06;12.75;;;9.27;;
83663;SDS011;73634;47.068;15.426;2024-02-16T10:47:31;12.95;;;9.57;;
83663;SDS011;73634;47.068;15.426;2024-02-16T10:52:55;15.40;;;9.88;;
83663;SDS011;73634;47.068;15.426;2024-02-16T10:55:23;12.27;;;8.75;;
83663;SDS011;73634;47.068;15.426;2024-02-16T10:57:49;12.98;;;8.88;;
83663;SDS011;73634;47.068;15.426;2024-02-16T11:00:15;11.43;;;7.97;;
83663;SDS011;73634;47.068;15.426;2024-02-16T11:02:53;13.75;;;8.75;;
83663;SDS011;73634;47.068;15.426;2024-02-16T11:05:31;12.60;;;9.38;;
83663;SDS011;73634;47.068;15.426;2024-02-16T11:08:03;14.82;;;9.85;;
83663;SDS011;73634;47.068;15.426;2024-02-16T11:10:30;10.70;;;8.32;;
83663;SDS011;73634;47.068;15.426;2024-02-16T11:13:00;13.07;;;9.32;;
83663;SDS011;73634;47.068;15.426;2024-02-16T11:16:43;11.80;;;8.93;;
83663;SDS011;73634;47.068;15.426;2024-02-16T11:19:09;12.43;;;9.48;;
83663;SDS011;73634;47.068;15.426;2024-02-16T11:21:35;12.65;;;9.57;;
83663;SDS011;73634;47.068;15.426;2024-02-16T11:24:06;11.30;;;9.40;;
83663;SDS011;73634;47.068;15.426;2024-02-16T11:26:33;11.05;;;9.00;;
83663;SDS011;73634;47.068;15.426;2024-02-16T11:29:08;10.32;;;8.35;;
83663;SDS011;73634;47.068;15.426;2024-02-16T11:31:35;11.52;;;8.55;;
83663;SDS011;73634;47.068;15.426;2024-02-16T11:34:00;11.93;;;8.77;;
83663;SDS011;73634;47.068;15.426;2024-02-16T11:36:26;11.93;;;8.30;;
83663;SDS011;73634;47.068;15.426;2024-02-16T11:41:16;13.88;;;9.13;;
83663;SDS011;73634;47.068;15.426;2024-02-16T11:43:42;10.77;;;9.52;;
83663;SDS011;73634;47.068;15.426;2024-02-16T11:46:11;11.13;;;9.23;;
83663;SDS011;73634;47.068;15.426;2024-02-16T11:48:38;11.05;;;7.63;;
83663;SDS011;73634;47.068;15.426;2024-02-16T11:51:03;10.18;;;8.27;;
83663;SDS011;73634;47.068;15.426;2024-02-16T11:53:30;10.60;;;9.00;;
83663;SDS011;73634;47.068;15.426;2024-02-16T11:55:56;10.95;;;8.23;;
83663;SDS011;73634;47.068;15.426;2024-02-16T11:58:22;12.18;;;9.38;;
83663;SDS011;73634;47.068;15.426;2024-02-16T12:00:49;13.90;;;11.50;;
83663;SDS011;73634;47.068;15.426;2024-02-16T12:05:27;11.00;;;8.68;;
83663;SDS011;73634;47.068;15.426;2024-02-16T12:07:52;10.80;;;9.63;;
83663;SDS011;73634;47.068;15.426;2024-02-16T12:10:17;11.13;;;9.60;;
83663;SDS011;73634;47.068;15.426;2024-02-16T12:12:43;12.98;;;7.75;;
83663;SDS011;73634;47.068;15.426;2024-02-16T12:15:08;10.60;;;8.17;;
83663;SDS011;73634;47.068;15.426;2024-02-16T12:17:35;9.93;;;7.65;;
83663;SDS011;73634;47.068;15.426;2024-02-16T12:20:00;9.35;;;6.97;;
83663;SDS011;73634;47.068;15.426;2024-02-16T12:22:27;11.57;;;7.18;;
83663;SDS011;73634;47.068;15.426;2024-02-16T12:24:52;10.80;;;8.27;;
83663;SDS011;73634;47.068;15.426;2024-02-16T12:27:18;10.00;;;7.33;;
83663;SDS011;73634;47.068;15.426;2024-02-16T12:31:39;8.55;;;6.20;;
83663;SDS011;73634;47.068;15.426;2024-02-16T12:34:06;11.07;;;6.97;;
83663;SDS011;73634;47.068;15.426;2024-02-16T12:36:32;9.43;;;6.25;;
83663;SDS011;73634;47.068;15.426;2024-02-16T12:38:59;10.05;;;5.75;;
83663;SDS011;73634;47.068;15.426;2024-02-16T12:41:24;11.50;;;6.03;;
83663;SDS011;73634;47.068;15.426;2024-02-16T12:43:50;11.02;;;7.00;;
83663;SDS011;73634;47.068;15.426;2024-02-16T12:46:15;9.02;;;6.50;;
83663;SDS011;73634;47.068;15.426;2024-02-16T12:48:41;7.75;;;5.22;;
83663;SDS011;73634;47.068;15.426;2024-02-16T12:51:06;9.25;;;7.03;;
83663;SDS011;73634;47.068;15.426;2024-02-16T12:53:32;9.45;;;6.22;;
83663;SDS011;73634;47.068;15.426;2024-02-16T12:57:34;10.45;;;5.65;;
83663;SDS011;73634;47.068;15.426;2024-02-16T12:59:59;9.02;;;5.50;;
83663;SDS011;73634;47.068;15.426;2024-02-16T13:02:25;10.07;;;5.70;;
83663;SDS011;73634;47.068;15.426;2024-02-16T13:04:50;7.93;;;5.07;;
83663;SDS011;73634;47.068;15.426;2024-02-16T13:07:15;7.60;;;4.78;;
83663;SDS011;73634;47.068;15.426;2024-02-16T13:09:41;7.43;;;4.20;;
83663;SDS011;73634;47.068;15.426;2024-02-16T13:12:07;7.75;;;5.35;;
83663;SDS011;73634;47.068;15.426;2024-02-16T13:14:32;9.23;;;5.97;;
83663;SDS011;73634;47.068;15.426;2024-02-16T13:16:57;9.88;;;6.45;;
83663;SDS011;73634;47.068;15.426;2024-02-16T13:19:23;9.85;;;7.20;;
83663;SDS011;73634;47.068;15.426;2024-02-16T13:23:46;12.25;;;8.18;;
83663;SDS011;73634;47.068;15.426;2024-02-16T13:26:11;9.68;;;6.13;;
83663;SDS011;73634;47.068;15.426;2024-02-16T13:28:37;11.07;;;7.35;;
83663;SDS011;73634;47.068;15.426;2024-02-16T13:31:02;9.10;;;6.72;;
83663;SDS011;73634;47.068;15.426;2024-02-16T13:33:28;9.63;;;6.65;;
83663;SDS011;73634;47.068;15.426;2024-02-16T13:35:53;8.52;;;7.07;;
83663;SDS011;73634;47.068;15.426;2024-02-16T13:38:19;10.43;;;6.75;;
83663;SDS011;73634;47.068;15.426;2024-02-16T13:40:45;10.60;;;7.18;;
83663;SDS011;73634;47.068;15.426;2024-02-16T13:43:10;9.77;;;6.13;;
83663;SDS011;73634;47.068;15.426;2024-02-16T13:48:12;8.60;;;6.22;;
83663;SDS011;73634;47.068;15.426;2024-02-16T13:50:38;13.75;;;8.00;;
83663;SDS011;73634;47.068;15.426;2024-02-16T13:53:03;13.35;;;7.28;;
83663;SDS011;73634;47.068;15.426;2024-02-16T13:55:29;11.88;;;7.30;;
83663;SDS011;73634;47.068;15.426;2024-02-16T13:57:54;11.70;;;6.97;;
83663;SDS011;73634;47.068;15.426;2024-02-16T14:00:20;11.57;;;6.57;;
83663;SDS011;73634;47.068;15.426;2024-02-16T14:02:45;10.40;;;6.25;;
83663;SDS011;73634;47.068;15.426;2024-02-16T14:05:11;11.25;;;6.95;;
83663;SDS011;73634;47.068;15.426;2024-02-16T14:07:36;9.85;;;6.95;;
83663;SDS011;73634;47.068;15.426;2024-02-16T14:12:34;10.52;;;6.57;;
83663;SDS011;73634;47.068;15.426;2024-02-16T14:14:59;11.35;;;7.03;;
83663;SDS011;73634;47.068;15.426;2024-02-16T14:17:24;18.90;;;12.70;;
83663;SDS011;73634;47.068;15.426;2024-02-16T14:19:50;11.07;;;7.10;;
83663;SDS011;73634;47.068;15.426;2024-02-16T14:22:16;12.20;;;6.63;;
83663;SDS011;73634;47.068;15.426;2024-02-16T14:24:41;11.00;;;6.30;;
83663;SDS011;73634;47.068;15.426;2024-02-16T14:27:07;9.18;;;6.07;;
83663;SDS011;73634;47.068;15.426;2024-02-16T14:29:32;11.50;;;6.53;;
83663;SDS011;73634;47.068;15.426;2024-02-16T14:31:57;11.02;;;6.47;;
83663;SDS011;73634;47.068;15.426;2024-02-16T14:34:23;9.57;;;6.35;;
83663;SDS011;73634;47.068;15.426;2024-02-16T14:37:59;9.10;;;5.82;;
83663;SDS011;73634;47.068;15.426;2024-02-16T14:40:25;11.40;;;5.60;;
83663;SDS011;73634;47.068;15.426;2024-02-16T14:42:51;9.80;;;7.00;;
83663;SDS011;73634;47.068;15.426;2024-02-16T14:45:16;10.88;;;6.35;;
83663;SDS011;73634;47.068;15.426;2024-02-16T14:47:45;14.68;;;6.05;;
83663;SDS011;73634;47.068;15.426;2024-02-16T14:50:12;10.05;;;5.78;;
83663;SDS011;73634;47.068;15.426;2024-02-16T14:52:38;9.25;;;5.82;;
83663;SDS011;73634;47.068;15.426;2024-02-16T14:55:06;10.55;;;5.90;;
83663;SDS011;73634;47.068;15.426;2024-02-16T14:57:38;11.75;;;6.00;;
83663;SDS011;73634;47.068;15.426;2024-02-16T15:02:25;10.13;;;6.20;;
83663;SDS011;73634;47.068;15.426;2024-02-16T15:04:51;9.18;;;6.53;;
83663;SDS011;73634;47.068;15.426;2024-02-16T15:07:18;9.63;;;5.05;;
83663;SDS011;73634;47.068;15.426;2024-02-16T15:09:44;9.32;;;5.47;;
83663;SDS011;73634;47.068;15.426;2024-02-16T15:12:09;8.70;;;5.03;;
83663;SDS011;73634;47.068;15.426;2024-02-16T15:14:35;10.90;;;5.35;;
83663;SDS011;73634;47.068;15.426;2024-02-16T15:17:00;10.40;;;6.00;;
83663;SDS011;73634;47.068;15.426;2024-02-16T15:19:25;9.00;;;5.65;;
83663;SDS011;73634;47.068;15.426;2024-02-16T15:21:51;10.18;;;6.63;;
83663;SDS011;73634;47.068;15.426;2024-02-16T15:26:21;8.40;;;4.68;;
83663;SDS011;73634;47.068;15.426;2024-02-16T15:28:47;9.48;;;5.03;;
83663;SDS011;73634;47.068;15.426;2024-02-16T15:31:13;9.90;;;5.40;;
83663;SDS011;73634;47.068;15.426;2024-02-16T15:33:38;7.53;;;4.68;;
83663;SDS011;73634;47.068;15.426;2024-02-16T15:36:03;10.03;;;5.33;;
83663;SDS011;73634;47.068;15.426;2024-02-16T15:38:29;7.93;;;5.00;;
83663;SDS011;73634;47.068;15.426;2024-02-16T15:40:54;9.95;;;5.28;;
83663;SDS011;73634;47.068;15.426;2024-02-16T15:43:20;8.43;;;4.50;;
83663;SDS011;73634;47.068;15.426;2024-02-16T15:45:45;9.70;;;5.47;;
83663;SDS011;73634;47.068;15.426;2024-02-16T15:51:08;10.35;;;4.32;;
83663;SDS011;73634;47.068;15.426;2024-02-16T15:53:34;8.70;;;5.47;;